createdAt,value
2018-04-30T00:01:29.405Z,99.90
2018-04-30T00:03:57.531Z,99.90
2018-04-30T00:06:26.424Z,99.90
2018-04-30T00:08:54.563Z,99.90
2018-04-30T00:11:23.673Z,99.90
2018-04-30T00:13:51.797Z,99.90
2018-04-30T00:16:19.927Z,99.90
2018-04-30T00:18:48.088Z,99.90
2018-04-30T00:21:17.102Z,99.90
2018-04-30T00:23:45.968Z,99.90
2018-04-30T00:26:14.136Z,99.90
2018-04-30T00:28:42.246Z,99.90
2018-04-30T00:31:11.137Z,99.90
2018-04-30T00:33:40.080Z,99.90
2018-04-30T00:36:08.167Z,99.90
2018-04-30T00:38:36.279Z,99.90
2018-04-30T00:41:04.411Z,99.90
2018-04-30T00:43:34.675Z,99.90
2018-04-30T00:46:04.348Z,99.90
2018-04-30T00:48:32.473Z,99.90
2018-04-30T00:51:00.685Z,99.90
2018-04-30T00:53:28.829Z,99.90
2018-04-30T00:55:56.958Z,99.90
2018-04-30T00:58:25.165Z,99.90
2018-04-30T01:00:54.000Z,99.90
2018-04-30T01:03:22.212Z,99.90
2018-04-30T01:05:51.077Z,99.90
2018-04-30T01:08:19.342Z,99.90
2018-04-30T01:10:47.521Z,99.90
2018-04-30T01:13:15.640Z,99.90
2018-04-30T01:15:43.768Z,99.90
2018-04-30T01:18:11.930Z,99.90
2018-04-30T01:20:40.104Z,99.90
2018-04-30T01:23:09.108Z,99.90
2018-04-30T01:25:37.369Z,99.90
2018-04-30T01:28:05.490Z,99.90
2018-04-30T01:30:33.799Z,99.90
2018-04-30T01:33:01.891Z,99.90
2018-04-30T01:35:30.092Z,99.90
2018-04-30T01:37:58.973Z,99.90
2018-04-30T01:40:27.146Z,99.90
2018-04-30T01:42:56.035Z,99.90
2018-04-30T01:45:24.143Z,99.90
2018-04-30T01:47:52.362Z,99.90
2018-04-30T01:50:20.678Z,99.90
2018-04-30T01:52:49.760Z,99.90
2018-04-30T01:55:17.947Z,99.90
2018-04-30T01:57:46.941Z,99.90
2018-04-30T02:00:15.843Z,99.90
2018-04-30T02:02:44.731Z,99.90
2018-04-30T02:05:13.585Z,99.90
2018-04-30T02:07:41.726Z,99.90
2018-04-30T02:10:10.691Z,99.90
2018-04-30T02:12:39.575Z,99.90
2018-04-30T02:15:08.505Z,99.90
2018-04-30T02:17:36.607Z,99.90
2018-04-30T02:20:04.739Z,99.90
2018-04-30T02:22:32.887Z,99.90
2018-04-30T02:25:01.771Z,99.90
2018-04-30T02:27:30.833Z,99.90
2018-04-30T02:29:59.570Z,99.90
2018-04-30T02:32:27.702Z,99.90
2018-04-30T02:34:55.862Z,99.90
2018-04-30T02:37:24.275Z,99.90
2018-04-30T02:39:53.163Z,99.90
2018-04-30T02:42:21.294Z,99.90
2018-04-30T02:44:49.417Z,99.90
2018-04-30T02:47:18.288Z,99.90
2018-04-30T02:49:46.409Z,99.90
2018-04-30T02:52:14.545Z,99.90
2018-04-30T02:54:42.685Z,99.90
2018-04-30T02:57:11.624Z,99.90
2018-04-30T02:59:39.900Z,99.90
2018-04-30T03:02:08.863Z,99.90
2018-04-30T03:04:36.971Z,99.90
2018-04-30T03:07:05.715Z,99.90
2018-04-30T03:09:33.863Z,99.90
2018-04-30T03:12:01.988Z,99.90
2018-04-30T03:14:31.056Z,99.90
2018-04-30T03:16:59.208Z,99.90
2018-04-30T03:19:27.396Z,99.90
2018-04-30T03:21:55.540Z,99.90
2018-04-30T03:24:23.649Z,99.90
2018-04-30T03:26:51.789Z,99.90
2018-04-30T03:29:19.925Z,99.90
2018-04-30T03:31:48.149Z,99.90
2018-04-30T03:34:16.456Z,99.90
2018-04-30T03:36:44.601Z,99.90
2018-04-30T03:39:12.758Z,99.90
2018-04-30T03:41:41.020Z,99.90
2018-04-30T03:44:09.139Z,99.90
2018-04-30T03:46:37.260Z,99.90
2018-04-30T03:49:05.434Z,99.90
2018-04-30T03:51:33.572Z,99.90
2018-04-30T03:54:02.481Z,99.90
2018-04-30T03:56:30.788Z,99.90
2018-04-30T03:58:59.089Z,99.90
2018-04-30T04:01:38.921Z,99.90
2018-04-30T04:04:19.011Z,99.90
2018-04-30T04:06:52.414Z,99.90
2018-04-30T04:09:20.526Z,99.90
2018-04-30T04:11:48.625Z,99.90
2018-04-30T04:14:16.730Z,99.90
2018-04-30T04:16:44.849Z,99.90
2018-04-30T04:19:13.043Z,99.90
2018-04-30T04:21:41.294Z,99.90
2018-04-30T04:24:11.441Z,99.90
2018-04-30T04:26:39.775Z,99.90
2018-04-30T04:29:08.645Z,99.90
2018-04-30T04:31:37.511Z,99.90
2018-04-30T04:34:05.643Z,99.90
2018-04-30T04:36:33.776Z,99.90
2018-04-30T04:39:02.114Z,99.90
2018-04-30T04:41:30.225Z,99.90
2018-04-30T04:43:58.816Z,99.90
2018-04-30T04:46:27.839Z,99.90
2018-04-30T04:48:56.702Z,99.90
2018-04-30T04:51:24.895Z,99.90
2018-04-30T04:53:53.775Z,99.90
2018-04-30T04:56:22.646Z,99.90
2018-04-30T04:58:50.767Z,99.90
2018-04-30T05:01:18.904Z,99.90
2018-04-30T05:03:47.013Z,99.90
2018-04-30T05:06:15.851Z,99.90
2018-04-30T05:08:45.464Z,99.90
2018-04-30T05:11:13.634Z,99.90
2018-04-30T05:13:41.757Z,99.90
2018-04-30T05:16:09.882Z,99.90
2018-04-30T05:18:38.315Z,99.90
2018-04-30T05:21:06.499Z,99.90
2018-04-30T05:23:34.694Z,99.90
2018-04-30T05:26:02.809Z,99.90
2018-04-30T05:28:32.488Z,99.90
2018-04-30T05:31:00.691Z,99.90
2018-04-30T05:33:29.573Z,99.90
2018-04-30T05:35:58.579Z,99.90
2018-04-30T05:38:26.875Z,99.90
2018-04-30T05:40:55.138Z,99.90
2018-04-30T05:43:24.167Z,99.90
2018-04-30T05:45:52.466Z,99.90
2018-04-30T05:48:21.684Z,99.90
2018-04-30T05:50:49.992Z,99.90
2018-04-30T05:53:18.168Z,99.90
2018-04-30T05:55:47.421Z,99.90
2018-04-30T05:58:15.752Z,99.90
2018-04-30T06:00:45.656Z,99.90
2018-04-30T06:03:13.785Z,99.90
2018-04-30T06:05:42.078Z,99.90
2018-04-30T06:08:10.966Z,99.90
2018-04-30T06:10:39.067Z,99.90
2018-04-30T06:13:07.202Z,99.90
2018-04-30T06:15:35.697Z,99.90
2018-04-30T06:18:04.607Z,99.90
2018-04-30T06:20:33.475Z,99.90
2018-04-30T06:23:02.372Z,99.90
2018-04-30T06:25:30.961Z,99.90
2018-04-30T06:28:00.005Z,99.90
2018-04-30T06:30:28.251Z,99.90
2018-04-30T06:32:56.386Z,99.90
2018-04-30T06:35:24.515Z,99.90
2018-04-30T06:37:54.415Z,99.90
2018-04-30T06:40:22.747Z,99.90
2018-04-30T06:42:51.574Z,99.90
2018-04-30T06:45:20.115Z,99.90
2018-04-30T06:47:48.426Z,99.90
2018-04-30T06:50:17.305Z,99.90
2018-04-30T06:52:46.657Z,99.90
2018-04-30T06:55:14.782Z,99.90
2018-04-30T06:57:44.645Z,99.90
2018-04-30T07:00:12.854Z,99.90
2018-04-30T07:02:42.470Z,99.90
2018-04-30T07:05:10.625Z,99.90
2018-04-30T07:07:38.819Z,99.90
2018-04-30T07:10:09.346Z,99.90
2018-04-30T07:12:37.457Z,99.90
2018-04-30T07:15:06.194Z,99.90
2018-04-30T07:17:34.314Z,99.90
2018-04-30T07:20:02.615Z,99.90
2018-04-30T07:22:30.846Z,99.90
2018-04-30T07:24:59.721Z,99.90
2018-04-30T07:27:28.895Z,99.90
2018-04-30T07:29:57.041Z,99.90
2018-04-30T07:32:25.684Z,99.90
2018-04-30T07:34:54.012Z,99.90
2018-04-30T07:37:22.426Z,99.90
2018-04-30T07:39:52.012Z,99.90
2018-04-30T07:42:21.714Z,99.10
2018-04-30T07:44:49.889Z,99.50
2018-04-30T07:47:17.996Z,99.50
2018-04-30T07:49:46.377Z,99.40
2018-04-30T07:52:14.687Z,99.90
2018-04-30T07:54:42.792Z,99.80
2018-04-30T07:57:11.480Z,99.50
2018-04-30T07:59:39.718Z,99.30
2018-04-30T08:02:07.903Z,99.10
2018-04-30T08:04:36.188Z,98.40
2018-04-30T08:07:04.422Z,99.00
2018-04-30T08:09:33.291Z,98.40
2018-04-30T08:12:02.912Z,98.40
2018-04-30T08:14:31.023Z,98.40
2018-04-30T08:17:02.440Z,98.20
2018-04-30T08:19:30.629Z,98.10
2018-04-30T08:21:58.792Z,98.20
2018-04-30T08:24:27.691Z,97.90
2018-04-30T08:26:57.619Z,98.60
2018-04-30T08:29:26.463Z,98.40
2018-04-30T08:31:54.590Z,98.10
2018-04-30T08:34:22.696Z,98.10
2018-04-30T08:36:50.851Z,98.00
2018-04-30T08:39:19.110Z,98.30
2018-04-30T08:41:47.271Z,97.50
2018-04-30T08:44:16.357Z,95.90
2018-04-30T08:46:45.206Z,94.70
2018-04-30T08:49:13.345Z,94.60
2018-04-30T08:51:41.508Z,94.00
2018-04-30T08:54:09.659Z,93.50
2018-04-30T08:56:38.527Z,93.70
2018-04-30T08:59:06.652Z,93.70
2018-04-30T09:01:34.792Z,93.30
2018-04-30T09:04:03.280Z,92.60
2018-04-30T09:06:32.120Z,91.30
2018-04-30T09:09:00.243Z,92.40
2018-04-30T09:11:29.195Z,91.70
2018-04-30T09:13:57.322Z,91.70
2018-04-30T09:16:25.427Z,91.70
2018-04-30T09:18:53.673Z,92.20
2018-04-30T09:21:22.776Z,90.70
2018-04-30T09:23:50.981Z,90.70
2018-04-30T09:26:19.274Z,90.40
2018-04-30T09:28:49.108Z,91.10
2018-04-30T09:31:17.221Z,91.00
2018-04-30T09:33:45.498Z,90.60
2018-04-30T09:36:13.749Z,91.20
2018-04-30T09:38:42.838Z,90.70
2018-04-30T09:41:11.775Z,90.80
2018-04-30T09:43:39.921Z,90.80
2018-04-30T09:46:08.056Z,90.70
2018-04-30T09:48:36.491Z,89.60
2018-04-30T09:51:04.731Z,87.60
2018-04-30T09:53:33.616Z,91.40
2018-04-30T09:56:02.531Z,91.70
2018-04-30T09:58:30.741Z,91.70
2018-04-30T10:00:58.825Z,91.50
2018-04-30T10:03:27.006Z,91.00
2018-04-30T10:05:55.166Z,90.10
2018-04-30T10:08:23.285Z,86.90
2018-04-30T10:10:52.864Z,83.80
2018-04-30T10:13:22.500Z,86.60
2018-04-30T10:15:51.496Z,85.00
2018-04-30T10:18:19.916Z,85.00
2018-04-30T10:20:48.168Z,87.30
2018-04-30T10:23:16.311Z,85.80
2018-04-30T10:25:45.302Z,85.90
2018-04-30T10:28:14.415Z,88.00
2018-04-30T10:30:42.550Z,87.40
2018-04-30T10:33:12.155Z,89.70
2018-04-30T10:35:40.313Z,89.70
2018-04-30T10:38:08.565Z,92.20
2018-04-30T10:40:37.423Z,94.40
2018-04-30T10:43:06.315Z,95.90
2018-04-30T10:45:35.165Z,95.10
2018-04-30T10:48:03.284Z,95.10
2018-04-30T10:50:31.911Z,94.90
2018-04-30T10:53:00.185Z,94.90
2018-04-30T10:55:28.281Z,94.90
2018-04-30T10:57:57.268Z,94.60
2018-04-30T11:00:25.428Z,94.30
2018-04-30T11:02:53.597Z,93.40
2018-04-30T11:05:21.724Z,93.80
2018-04-30T11:07:49.833Z,92.50
2018-04-30T11:10:17.928Z,92.00
2018-04-30T11:12:46.028Z,91.60
2018-04-30T11:15:14.903Z,89.50
2018-04-30T11:17:42.999Z,89.50
2018-04-30T11:20:12.759Z,90.00
2018-04-30T11:22:41.102Z,87.10
2018-04-30T11:25:09.956Z,84.80
2018-04-30T11:27:38.292Z,84.80
2018-04-30T11:30:06.320Z,86.40
2018-04-30T11:32:35.202Z,85.30
2018-04-30T11:35:03.311Z,85.30
2018-04-30T11:37:31.425Z,85.40
2018-04-30T11:39:59.709Z,85.00
2018-04-30T11:42:27.962Z,84.00
2018-04-30T11:44:56.101Z,85.90
2018-04-30T11:47:24.274Z,87.50
2018-04-30T11:49:52.383Z,89.40
2018-04-30T11:52:21.043Z,90.60
2018-04-30T11:54:49.160Z,91.10
2018-04-30T11:57:19.554Z,88.20
2018-04-30T11:59:47.655Z,88.20
2018-04-30T12:02:16.071Z,89.30
2018-04-30T12:04:45.418Z,89.40
2018-04-30T12:07:13.519Z,89.40
2018-04-30T12:09:42.434Z,88.60
2018-04-30T12:12:11.310Z,88.20
2018-04-30T12:14:40.223Z,86.40
2018-04-30T12:17:09.256Z,87.10
2018-04-30T12:19:37.475Z,87.10
2018-04-30T12:22:06.560Z,90.00
2018-04-30T12:24:35.469Z,88.50
2018-04-30T12:27:04.363Z,87.10
2018-04-30T12:29:33.272Z,83.50
2018-04-30T12:32:01.435Z,83.50
2018-04-30T12:34:30.336Z,82.10
2018-04-30T12:36:58.436Z,82.10
2018-04-30T12:39:26.535Z,81.80
2018-04-30T12:41:55.423Z,82.90
2018-04-30T12:44:23.709Z,82.80
2018-04-30T12:46:52.583Z,82.30
2018-04-30T12:49:20.702Z,82.20
2018-04-30T12:51:49.922Z,79.10
2018-04-30T12:54:18.135Z,79.10
2018-04-30T12:56:46.242Z,80.70
2018-04-30T12:59:15.435Z,80.20
2018-04-30T13:01:44.316Z,81.30
2018-04-30T13:04:13.220Z,82.90
2018-04-30T13:06:42.201Z,86.30
2018-04-30T13:09:11.158Z,87.40
2018-04-30T13:11:39.378Z,87.40
2018-04-30T13:14:07.491Z,85.00
2018-04-30T13:16:35.601Z,86.20
2018-04-30T13:19:04.494Z,82.30
2018-04-30T13:21:32.592Z,82.30
2018-04-30T13:24:00.863Z,82.60
2018-04-30T13:26:29.744Z,80.70
2018-04-30T13:28:58.611Z,78.50
2018-04-30T13:31:26.727Z,78.50
2018-04-30T13:33:54.844Z,79.90
2018-04-30T13:36:23.296Z,79.60
2018-04-30T13:38:51.409Z,77.30
2018-04-30T13:41:20.998Z,78.20
2018-04-30T13:43:49.101Z,77.30
2018-04-30T13:46:18.242Z,78.00
2018-04-30T13:48:46.360Z,77.80
2018-04-30T13:51:14.467Z,79.10
2018-04-30T13:53:42.590Z,79.10
2018-04-30T13:56:10.709Z,78.70
2018-04-30T13:58:39.654Z,77.20
2018-04-30T14:01:07.750Z,77.20
2018-04-30T14:03:35.853Z,76.40
2018-04-30T14:06:03.970Z,77.00
2018-04-30T14:08:32.254Z,74.70
2018-04-30T14:11:00.379Z,75.00
2018-04-30T14:13:28.573Z,76.90
2018-04-30T14:15:57.561Z,81.20
2018-04-30T14:18:26.402Z,82.00
2018-04-30T14:20:54.504Z,81.90
2018-04-30T14:23:22.768Z,86.10
2018-04-30T14:25:51.644Z,81.70
2018-04-30T14:28:19.917Z,81.70
2018-04-30T14:30:48.777Z,82.00
2018-04-30T14:33:16.886Z,82.00
2018-04-30T14:35:45.773Z,86.90
2018-04-30T14:38:14.664Z,89.60
2018-04-30T14:40:43.538Z,89.70
2018-04-30T14:43:11.638Z,88.80
2018-04-30T14:45:40.617Z,88.20
2018-04-30T14:48:09.490Z,88.70
2018-04-30T14:50:37.585Z,87.90
2018-04-30T14:53:06.553Z,88.90
2018-04-30T14:55:34.670Z,88.90
2018-04-30T14:58:02.801Z,89.10
2018-04-30T15:00:30.924Z,88.40
2018-04-30T15:02:59.069Z,90.60
2018-04-30T15:05:27.945Z,91.60
2018-04-30T15:07:56.986Z,91.50
2018-04-30T15:10:25.186Z,91.80
2018-04-30T15:12:53.321Z,92.30
2018-04-30T15:15:22.330Z,93.10
2018-04-30T15:17:50.417Z,93.10
2018-04-30T15:20:18.526Z,93.70
2018-04-30T15:22:48.142Z,93.70
2018-04-30T15:25:16.263Z,93.70
2018-04-30T15:27:44.368Z,94.10
2018-04-30T15:30:12.474Z,93.60
2018-04-30T15:32:41.345Z,96.10
2018-04-30T15:35:09.631Z,96.10
2018-04-30T15:37:37.806Z,97.10
2018-04-30T15:40:06.868Z,96.50
2018-04-30T15:42:36.432Z,96.40
2018-04-30T15:45:05.055Z,96.20
2018-04-30T15:47:33.145Z,95.30
2018-04-30T15:50:01.225Z,96.60
2018-04-30T15:52:29.403Z,96.40
2018-04-30T15:54:57.667Z,97.10
2018-04-30T15:57:26.385Z,98.20
2018-04-30T15:59:55.245Z,97.40
2018-04-30T16:02:24.862Z,97.60
2018-04-30T16:04:53.553Z,97.60
2018-04-30T16:07:22.431Z,97.80
2018-04-30T16:09:50.540Z,97.70
2018-04-30T16:12:18.637Z,98.50
2018-04-30T16:14:46.784Z,97.80
2018-04-30T16:17:14.900Z,99.40
2018-04-30T16:19:43.089Z,99.50
2018-04-30T16:22:11.174Z,99.70
2018-04-30T16:24:39.333Z,99.50
2018-04-30T16:27:07.549Z,99.90
2018-04-30T16:29:36.487Z,99.90
2018-04-30T16:32:04.603Z,99.90
2018-04-30T16:34:33.464Z,99.90
2018-04-30T16:37:01.701Z,99.90
2018-04-30T16:39:29.818Z,99.90
2018-04-30T16:41:57.893Z,99.90
2018-04-30T16:44:26.091Z,99.90
2018-04-30T16:46:54.962Z,99.90
2018-04-30T16:49:23.051Z,99.90
2018-04-30T16:51:52.036Z,99.90
2018-04-30T16:54:21.596Z,99.90
2018-04-30T16:56:49.693Z,99.90
2018-04-30T16:59:17.806Z,99.90
2018-04-30T17:01:46.680Z,99.90
2018-04-30T17:04:15.539Z,99.90
2018-04-30T17:06:43.646Z,99.90
2018-04-30T17:09:12.529Z,99.90
2018-04-30T17:11:41.394Z,99.90
2018-04-30T17:14:11.433Z,99.90
2018-04-30T17:16:39.517Z,99.90
2018-04-30T17:19:08.402Z,99.90
2018-04-30T17:21:37.271Z,99.90
2018-04-30T17:24:05.383Z,99.90
2018-04-30T17:29:07.789Z,99.90
2018-04-30T17:31:35.895Z,99.90
2018-04-30T17:34:03.995Z,99.90
2018-04-30T17:36:32.950Z,99.90
2018-04-30T17:39:01.058Z,99.90
2018-04-30T17:41:29.302Z,99.90
2018-04-30T17:43:57.414Z,99.90
2018-04-30T17:46:26.284Z,99.90
2018-04-30T17:48:54.423Z,99.90
2018-04-30T17:51:22.548Z,99.90
2018-04-30T17:53:50.820Z,99.90
2018-04-30T17:56:18.921Z,99.90
2018-04-30T17:58:47.314Z,99.90
2018-04-30T18:01:16.212Z,99.90
2018-04-30T18:03:44.307Z,99.90
2018-04-30T18:06:12.431Z,99.90
2018-04-30T18:08:40.521Z,99.90
2018-04-30T18:11:08.665Z,99.90
2018-04-30T18:13:37.533Z,99.90
2018-04-30T18:16:08.504Z,99.90
2018-04-30T18:18:36.627Z,99.90
2018-04-30T18:21:04.778Z,99.90
2018-04-30T18:23:33.008Z,99.90
2018-04-30T18:26:01.873Z,99.90
2018-04-30T18:28:30.046Z,99.90
2018-04-30T18:30:58.318Z,99.90
2018-04-30T18:33:26.410Z,99.90
2018-04-30T18:35:55.303Z,99.90
2018-04-30T18:38:24.473Z,99.90
2018-04-30T18:40:52.587Z,99.90
2018-04-30T18:43:21.450Z,99.90
2018-04-30T18:45:49.677Z,99.90
2018-04-30T18:48:17.924Z,99.90
2018-04-30T18:50:46.793Z,99.90
2018-04-30T18:53:15.081Z,99.90
2018-04-30T18:55:43.966Z,99.90
2018-04-30T18:58:12.201Z,99.90
2018-04-30T19:00:40.584Z,99.90
2018-04-30T19:03:11.521Z,99.90
2018-04-30T19:05:39.657Z,99.90
2018-04-30T19:08:08.626Z,99.90
2018-04-30T19:10:37.407Z,99.90
2018-04-30T19:13:05.655Z,99.90
2018-04-30T19:15:33.842Z,99.90
2018-04-30T19:18:01.944Z,99.90
2018-04-30T19:20:30.944Z,99.90
2018-04-30T19:22:59.048Z,99.90
2018-04-30T19:25:27.138Z,99.90
2018-04-30T19:27:55.255Z,99.90
2018-04-30T19:30:24.134Z,99.90
2018-04-30T19:32:52.252Z,99.90
2018-04-30T19:35:20.370Z,99.90
2018-04-30T19:37:48.462Z,99.90
2018-04-30T19:40:17.448Z,99.90
2018-04-30T19:42:45.578Z,99.90
2018-04-30T19:45:13.863Z,99.90
2018-04-30T19:47:42.093Z,99.90
2018-04-30T19:50:10.439Z,99.90
2018-04-30T19:52:40.050Z,99.90
2018-04-30T19:55:08.154Z,99.90
2018-04-30T19:57:37.881Z,99.90
2018-04-30T20:00:05.998Z,99.90
2018-04-30T20:02:34.164Z,99.90
2018-04-30T20:05:02.279Z,99.90
2018-04-30T20:07:31.195Z,99.90
2018-04-30T20:09:59.321Z,99.90
2018-04-30T20:12:27.498Z,99.90
2018-04-30T20:14:55.852Z,99.90
2018-04-30T20:17:24.025Z,99.90
2018-04-30T20:19:52.162Z,99.90
2018-04-30T20:22:20.326Z,99.90
2018-04-30T20:24:49.279Z,99.90
2018-04-30T20:27:17.444Z,99.90
2018-04-30T20:29:45.569Z,99.90
2018-04-30T20:32:13.743Z,99.90
2018-04-30T20:34:41.857Z,99.90
2018-04-30T20:37:09.962Z,99.90
2018-04-30T20:39:38.863Z,99.90
2018-04-30T20:42:07.866Z,99.90
2018-04-30T20:44:36.718Z,99.90
2018-04-30T20:47:04.881Z,99.90
2018-04-30T20:49:33.140Z,99.90
2018-04-30T20:52:01.463Z,99.90
2018-04-30T20:54:29.633Z,99.90
2018-04-30T20:56:58.809Z,99.90
2018-04-30T20:59:26.903Z,99.90
2018-04-30T21:01:55.784Z,99.90
2018-04-30T21:04:24.003Z,99.90
2018-04-30T21:06:52.176Z,99.90
2018-04-30T21:09:20.302Z,99.90
2018-04-30T21:11:48.977Z,99.90
2018-04-30T21:14:17.074Z,99.90
2018-04-30T21:16:45.303Z,99.90
2018-04-30T21:19:13.605Z,99.90
2018-04-30T21:21:42.551Z,99.90
2018-04-30T21:24:10.713Z,99.90
2018-04-30T21:26:38.821Z,99.90
2018-04-30T21:29:07.064Z,99.90
2018-04-30T21:31:35.311Z,99.90
2018-04-30T21:34:03.573Z,99.90
2018-04-30T21:36:32.024Z,99.90
2018-04-30T21:39:00.198Z,99.90
2018-04-30T21:41:28.337Z,99.90
2018-04-30T21:43:56.686Z,99.90
2018-04-30T21:46:25.155Z,99.90
2018-04-30T21:48:53.265Z,99.90
2018-04-30T21:51:24.726Z,99.90
2018-04-30T21:53:52.859Z,99.90
2018-04-30T21:56:20.956Z,99.90
2018-04-30T21:58:49.051Z,99.90
2018-04-30T22:01:17.163Z,99.90
2018-04-30T22:03:45.371Z,99.90
2018-04-30T22:06:14.236Z,99.90
2018-04-30T22:08:42.355Z,99.90
2018-04-30T22:11:10.464Z,99.90
2018-04-30T22:13:38.555Z,99.90
2018-04-30T22:16:06.658Z,99.90
2018-04-30T22:18:35.716Z,99.90
2018-04-30T22:21:03.837Z,99.90
2018-04-30T22:23:32.633Z,99.90
2018-04-30T22:26:00.766Z,99.90
2018-04-30T22:28:28.909Z,99.90
2018-04-30T22:30:57.830Z,99.90
2018-04-30T22:33:26.657Z,99.90
2018-04-30T22:35:55.811Z,99.90
2018-04-30T22:38:23.900Z,99.90
2018-04-30T22:40:52.779Z,99.90
2018-04-30T22:43:20.897Z,99.90
2018-04-30T22:45:49.020Z,99.90
2018-04-30T22:48:18.657Z,99.90
2018-04-30T22:50:47.527Z,99.90
2018-04-30T22:53:16.404Z,99.90
2018-04-30T22:55:44.551Z,99.90
2018-04-30T22:58:12.934Z,99.90
2018-04-30T23:00:41.127Z,99.90
2018-04-30T23:03:09.284Z,99.90
2018-04-30T23:05:37.483Z,99.90
2018-04-30T23:08:05.586Z,99.90
2018-04-30T23:10:34.645Z,99.90
2018-04-30T23:13:02.746Z,99.90
2018-04-30T23:15:31.605Z,99.90
2018-04-30T23:17:59.966Z,99.90
2018-04-30T23:20:28.253Z,99.90
2018-04-30T23:22:56.436Z,99.90
2018-04-30T23:25:25.250Z,99.90
2018-04-30T23:27:54.109Z,99.90
2018-04-30T23:30:22.213Z,99.90
2018-04-30T23:32:51.295Z,99.90
2018-04-30T23:35:19.431Z,99.90
2018-04-30T23:37:47.808Z,99.90
2018-04-30T23:40:15.922Z,99.90
2018-04-30T23:42:44.883Z,99.90
2018-04-30T23:45:13.041Z,99.90
2018-04-30T23:47:41.258Z,99.90
2018-04-30T23:50:09.358Z,99.90
2018-04-30T23:52:37.519Z,99.90
2018-04-30T23:55:06.517Z,99.90
2018-04-30T23:57:35.499Z,99.90
